EDQM

Hof-Plauen Airport

Hof, Germany
METAR EDQM 221520Z 25012KT 9999 FEW045 SCT061 OVC110 13/03 Q1020
Observed Flight Rules
Sep-22 @ 15:20 UTC (23 minutes ago) Visual Flight Rules
Wind Visibility Clouds
250° at 12 knots 10,000+ meters
Temperatures Readings
Current 13°C / 55°F
Dewpoint 3°C / 37°F
Humidity 51%
Altimeter 30.12" Hg
Pressure 1020 hPa
Elevation 568
METAR EDQM 221520Z 25012KT 9999 FEW045 SCT061 OVC110 13/03 Q1020
Observed Flight Rules
Sep-22 @ 15:20 UTC
(23 minutes ago)
VFR
Wind Visibility
250° at 12 knots 10,000+ meters
Clouds
Temperature Dewpoint
13°C / 55°F 3°C / 37°F
Humidity Altimeter Pressure
51% 30.12" Hg 1020 hPa